Time;durP1;ratioP1;P1;durP2;ratioP2;P2;SDS_P1;SDS_P2;PMS_P1;PMS_P2;Temp;Humidity;BMP_temperature;BMP_pressure;BME280_temperature;BME280_humidity;BME280_pressure;Samples;Min_cycle;Max_cycle;Signal;HPM_P1;HPM_P2
2023/09/17 00:01:34;;;;;;;10.90;7.85;;;;;;;20.24;89.84;100605.81;5039599;28;20029;-78
2023/09/17 00:04:00;;;;;;;11.73;9.13;;;;;;;20.01;91.73;100607.16;5035139;28;20082;-80
2023/09/17 00:06:26;;;;;;;13.07;8.55;;;;;;;19.99;92.10;100605.81;5059949;28;20056;-78
2023/09/17 00:08:51;;;;;;;12.90;8.07;;;;;;;19.95;93.67;100597.41;5057093;28;20032;-78
2023/09/17 00:11:17;;;;;;;10.85;9.00;;;;;;;19.84;93.94;100609.31;5050909;28;20060;-78
2023/09/17 00:13:42;;;;;;;10.82;8.55;;;;;;;19.89;93.80;100614.72;5050804;28;20060;-81
2023/09/17 00:16:10;;;;;;;12.40;8.45;;;;;;;19.71;94.38;100588.16;5064525;28;20036;-78
2023/09/17 00:18:35;;;;;;;;;;;;;;;19.48;96.36;100617.28;5061365;28;20025;-79
2023/09/17 00:21:08;;;;;;;14.18;9.35;;;;;;;19.32;96.65;100602.88;5061237;28;20293;-79
2023/09/17 00:23:34;;;;;;;11.52;8.77;;;;;;;19.53;96.35;100611.88;5030897;28;20065;-79
2023/09/17 00:25:59;;;;;;;12.15;9.15;;;;;;;19.63;96.53;100617.31;5049702;28;20115;-82
2023/09/17 00:28:24;;;;;;;13.45;8.73;;;;;;;19.70;95.05;100613.56;5062672;28;20075;-78
2023/09/17 00:30:50;;;;;;;15.30;9.57;;;;;;;19.87;94.34;100611.47;5049143;28;20032;-78
2023/09/17 00:33:15;;;;;;;13.30;9.13;;;;;;;19.48;95.92;100591.03;5050281;28;20052;-78
2023/09/17 00:35:41;;;;;;;12.93;9.38;;;;;;;19.54;96.89;100599.97;5062891;28;20548;-77
2023/09/17 00:38:06;;;;;;;14.13;10.07;;;;;;;19.65;96.62;100607.03;5054821;28;20055;-82
2023/09/17 00:40:34;;;;;;;12.00;9.48;;;;;;;19.50;96.07;100579.97;5054306;28;20416;-79
2023/09/17 00:43:00;;;;;;;12.10;8.90;;;;;;;19.45;97.69;100590.75;5050133;28;20036;-79
2023/09/17 00:45:29;;;;;;;13.02;10.27;;;;;;;19.79;96.22;100596.56;5050267;28;20021;-82
2023/09/17 00:47:55;;;;;;;15.02;9.25;;;;;;;19.61;96.53;100600.53;5050295;28;20071;-81
2023/09/17 00:50:23;;;;;;;12.35;9.40;;;;;;;19.58;96.57;100601.09;5057061;28;20029;-78
2023/09/17 00:52:49;;;;;;;15.50;9.98;;;;;;;19.45;97.69;100583.47;5049381;28;20055;-78
2023/09/17 00:55:14;;;;;;;13.52;9.63;;;;;;;19.39;97.85;100587.22;5050070;28;20029;-78
2023/09/17 00:57:45;;;;;;;15.13;9.80;;;;;;;19.23;99.93;100589.06;5061307;28;20060;-81
2023/09/17 01:00:11;;;;;;;13.57;10.43;;;;;;;19.46;98.06;100595.09;5052007;28;20021;-79
2023/09/17 01:02:39;;;;;;;13.70;9.93;;;;;;;19.40;98.84;100593.44;5036858;28;20044;-79
2023/09/17 01:05:05;;;;;;;14.25;10.45;;;;;;;19.34;98.85;100572.88;5036656;28;20525;-80
2023/09/17 01:07:33;;;;;;;12.10;9.10;;;;;;;19.54;97.05;100594.56;5059435;28;20055;-78
2023/09/17 01:09:59;;;;;;;18.05;10.68;;;;;;;19.55;97.95;100598.91;5057068;28;20044;-78
2023/09/17 01:12:26;;;;;;;14.90;10.15;;;;;;;19.52;97.53;100594.03;5049612;28;20037;-78
2023/09/17 01:14:52;;;;;;;14.93;11.10;;;;;;;19.61;96.92;100605.94;5049707;28;20033;-78
2023/09/17 01:17:17;;;;;;;12.73;10.23;;;;;;;19.81;95.81;100607.13;5056139;28;20029;-80
2023/09/17 01:19:42;;;;;;;12.82;9.02;;;;;;;19.60;93.26;100615.16;5057534;28;20032;-78
2023/09/17 01:22:23;;;;;;;14.77;10.50;;;;;;;19.51;92.00;100610.50;5049447;28;20033;-78
2023/09/17 01:25:05;;;;;;;13.18;10.20;;;;;;;19.15;96.19;100615.78;5048255;28;20151;-78
2023/09/17 01:27:33;;;;;;;13.88;11.15;;;;;;;19.08;96.93;100607.88;5043846;28;20028;-78
2023/09/17 01:29:59;;;;;;;;;;;;;;;19.14;98.69;100612.25;5061616;28;20021;-78
2023/09/17 01:32:24;;;;;;;17.20;12.88;;;;;;;18.89;100.00;100587.78;5063813;28;19920;-80
2023/09/17 01:34:53;;;;;;;18.52;12.32;;;;;;;18.98;100.00;100597.03;5048949;28;20033;-78
2023/09/17 01:37:28;;;;;;;15.23;11.70;;;;;;;19.13;100.00;100610.63;5065586;28;20067;-81
2023/09/17 01:40:05;;;;;;;17.42;12.82;;;;;;;19.22;99.93;100602.81;5058244;28;20183;-79
2023/09/17 01:42:31;;;;;;;15.40;12.43;;;;;;;19.21;100.00;100602.03;5044404;28;20021;-79
2023/09/17 01:45:01;;;;;;;16.15;12.63;;;;;;;19.40;100.00;100604.25;5028745;28;20044;-78
2023/09/17 01:47:28;;;;;;;18.85;13.25;;;;;;;19.54;99.15;100594.56;5051307;28;20031;-79
2023/09/17 01:50:00;;;;;;;15.73;12.18;;;;;;;19.57;97.97;100585.91;5059309;28;20039;-78
2023/09/17 01:52:26;;;;;;;16.85;12.23;;;;;;;19.71;97.66;100601.69;5048847;28;20112;-79
2023/09/17 01:54:52;;;;;;;14.05;11.45;;;;;;;19.75;97.16;100590.06;5049058;28;20029;-78
2023/09/17 01:57:18;;;;;;;17.83;11.20;;;;;;;19.33;99.41;100560.41;5060165;28;20107;-78
2023/09/17 01:59:44;;;;;;;13.75;10.68;;;;;;;19.45;99.94;100579.94;5055332;28;20100;-78
2023/09/17 02:02:10;;;;;;;16.27;11.98;;;;;;;19.42;98.48;100562.34;5069061;28;20032;-78
2023/09/17 02:04:35;;;;;;;14.45;10.80;;;;;;;19.63;96.89;100565.91;5049445;28;20021;-82
2023/09/17 02:07:04;;;;;;;14.73;11.35;;;;;;;19.67;96.33;100588.66;5060789;28;20039;-78
2023/09/17 02:09:29;;;;;;;14.40;11.60;;;;;;;19.40;97.66;100577.22;5053212;28;20202;-78
2023/09/17 02:11:57;;;;;;;15.63;11.13;;;;;;;19.38;98.75;100582.06;5052987;28;20029;-79
2023/09/17 02:14:22;;;;;;;16.17;9.98;;;;;;;19.44;98.59;100589.13;5048838;28;20029;-78
2023/09/17 02:16:47;;;;;;;14.32;10.00;;;;;;;19.73;97.02;100586.00;5057352;28;20036;-80
2023/09/17 02:19:15;;;;;;;14.63;10.80;;;;;;;19.56;97.28;100572.69;5053214;28;20029;-78
2023/09/17 02:21:40;;;;;;;15.65;10.65;;;;;;;19.40;98.93;100574.50;5040757;28;20056;-78
2023/09/17 02:24:07;;;;;;;16.00;10.15;;;;;;;19.65;97.66;100573.75;5035799;28;20061;-78
2023/09/17 02:26:32;;;;;;;16.85;10.75;;;;;;;19.78;96.38;100565.19;5041944;28;20078;-78
2023/09/17 02:28:58;;;;;;;16.25;11.75;;;;;;;19.53;97.01;100568.59;5056749;28;20033;-78
2023/09/17 02:31:24;;;;;;;13.60;10.18;;;;;;;19.50;96.08;100577.25;5065229;28;20086;-79
2023/09/17 02:33:49;;;;;;;14.65;10.68;;;;;;;19.37;96.22;100569.63;5058843;28;20035;-79
2023/09/17 02:36:17;;;;;;;15.15;11.32;;;;;;;19.30;96.70;100574.47;5047873;28;20526;-78
2023/09/17 02:38:42;;;;;;;20.83;12.73;;;;;;;19.39;97.38;100556.66;5066704;28;20062;-79
2023/09/17 02:41:08;;;;;;;18.42;12.93;;;;;;;19.22;98.44;100554.16;5055208;28;20029;-79
2023/09/17 02:43:36;;;;;;;16.48;12.05;;;;;;;19.24;98.34;100584.44;5048473;28;20024;-81
2023/09/17 02:46:03;;;;;;;14.77;10.82;;;;;;;19.28;98.37;100585.53;5046835;28;20037;-80
2023/09/17 02:48:30;;;;;;;14.85;10.20;;;;;;;19.16;98.99;100572.25;5067044;28;20032;-78
2023/09/17 02:50:56;;;;;;;14.88;10.88;;;;;;;19.22;98.43;100575.78;5068293;28;20119;-78
2023/09/17 02:53:21;;;;;;;14.13;9.75;;;;;;;19.26;98.96;100571.47;5066400;28;20148;-78
2023/09/17 02:55:46;;;;;;;17.20;10.25;;;;;;;19.19;99.50;100571.72;5026965;28;20021;-79
2023/09/17 02:58:12;;;;;;;14.38;10.43;;;;;;;19.38;98.53;100574.78;5047346;28;20033;-78
2023/09/17 03:00:38;;;;;;;13.00;10.57;;;;;;;19.25;97.64;100557.16;5061595;28;20029;-78
2023/09/17 03:03:03;;;;;;;13.32;10.48;;;;;;;19.26;98.98;100585.81;5046938;28;20756;-79
2023/09/17 03:05:29;;;;;;;14.00;10.85;;;;;;;19.14;100.00;100574.41;5031261;28;20612;-79
2023/09/17 03:07:55;;;;;;;14.57;11.50;;;;;;;19.02;100.00;100581.91;5055932;28;20032;-78
2023/09/17 03:10:20;;;;;;;14.70;10.90;;;;;;;19.07;100.00;100579.25;5065596;28;20037;-78
2023/09/17 03:12:46;;;;;;;15.55;11.38;;;;;;;19.23;100.00;100589.06;5066671;28;20093;-78
2023/09/17 03:15:13;;;;;;;14.45;10.90;;;;;;;19.61;99.92;100584.31;5057959;28;20505;-78
2023/09/17 03:17:39;;;;;;;14.55;11.00;;;;;;;19.55;98.08;100585.38;5061078;28;20105;-79
2023/09/17 03:20:22;;;;;;;13.82;10.85;;;;;;;19.43;98.99;100582.91;5057262;28;20036;-79
2023/09/17 03:22:48;;;;;;;17.55;12.23;;;;;;;19.35;100.00;100596.13;5045579;28;20035;-79
2023/09/17 03:25:14;;;;;;;15.48;11.50;;;;;;;19.50;99.46;100598.88;5051783;28;20409;-79
2023/09/17 03:27:43;;;;;;;15.65;11.30;;;;;;;19.43;98.98;100603.72;5058968;28;20040;-78
2023/09/17 03:30:09;;;;;;;16.25;11.88;;;;;;;19.20;100.00;100594.97;5057687;28;20084;-78
2023/09/17 03:32:35;;;;;;;19.33;13.60;;;;;;;19.37;100.00;100610.19;5059569;28;20115;-79
2023/09/17 03:35:01;;;;;;;23.05;13.60;;;;;;;19.41;100.00;100612.13;5051375;28;20108;-79
2023/09/17 03:37:27;;;;;;;19.33;13.63;;;;;;;19.26;100.00;100588.50;5055634;28;20033;-79
2023/09/17 03:40:12;;;;;;;20.60;14.32;;;;;;;19.53;99.98;100603.75;5060863;28;20021;-79
2023/09/17 03:42:39;;;;;;;19.65;14.02;;;;;;;19.41;99.78;100576.97;5069667;28;20024;-78
2023/09/17 03:45:12;;;;;;;20.90;13.18;;;;;;;19.48;99.49;100596.44;5061809;28;20478;-78
2023/09/17 03:47:42;;;;;;;22.13;13.30;;;;;;;19.49;100.00;100591.84;5055616;28;20032;-79
2023/09/17 03:50:13;;;;;;;18.15;12.60;;;;;;;19.68;99.29;100590.28;5059661;28;20033;-79
2023/09/17 03:52:45;;;;;;;23.33;13.30;;;;;;;19.76;98.64;100596.31;5049978;28;20037;-78
2023/09/17 03:55:12;;;;;;;21.85;13.77;;;;;;;19.63;99.26;100592.97;5039274;28;20041;-78
2023/09/17 03:57:38;;;;;;;17.60;12.95;;;;;;;19.63;99.20;100589.44;5054609;28;20473;-79
2023/09/17 04:00:07;;;;;;;17.17;11.73;;;;;;;19.60;97.98;100582.69;5061521;28;20111;-78
2023/09/17 04:02:35;;;;;;;15.55;11.32;;;;;;;19.40;99.23;100582.63;5051538;28;20033;-78
2023/09/17 04:05:01;;;;;;;15.30;10.25;;;;;;;19.54;98.13;100588.34;5036486;28;20027;-78
2023/09/17 04:07:27;;;;;;;13.52;10.38;;;;;;;19.39;99.23;100580.97;5051858;28;20029;-78
2023/09/17 04:09:53;;;;;;;16.85;10.88;;;;;;;19.08;100.00;100594.38;5070228;28;20029;-78
2023/09/17 04:12:18;;;;;;;15.43;10.48;;;;;;;19.18;100.00;100580.91;5055418;28;20074;-79
2023/09/17 04:14:44;;;;;;;15.90;11.63;;;;;;;19.05;100.00;100581.41;5035272;28;20021;-78
2023/09/17 04:17:10;;;;;;;12.60;9.75;;;;;;;19.19;100.00;100569.03;5069546;28;20484;-78
2023/09/17 04:19:35;;;;;;;15.40;10.98;;;;;;;19.36;100.00;100570.72;5065408;28;20032;-80
2023/09/17 04:22:02;;;;;;;14.20;9.98;;;;;;;19.30;99.97;100566.38;5050259;28;20128;-78
2023/09/17 04:24:28;;;;;;;19.73;10.85;;;;;;;19.46;99.42;100585.06;5030581;28;20105;-78
2023/09/17 04:26:54;;;;;;;16.77;11.30;;;;;;;19.12;100.00;100567.63;5047853;28;20040;-79
2023/09/17 04:29:20;;;;;;;14.45;10.48;;;;;;;19.12;100.00;100571.13;5063795;28;20029;-78
2023/09/17 04:31:51;;;;;;;21.10;11.50;;;;;;;19.23;100.00;100588.25;5065202;28;20044;-78
2023/09/17 04:34:17;;;;;;;15.05;10.88;;;;;;;19.26;100.00;100577.69;5032920;28;20037;-80
2023/09/17 04:36:43;;;;;;;15.70;11.15;;;;;;;19.51;98.98;100597.78;5045989;28;20041;-77
2023/09/17 04:39:09;;;;;;;20.15;11.40;;;;;;;19.45;98.27;100604.25;5051706;28;20112;-79
2023/09/17 04:41:35;;;;;;;16.98;10.90;;;;;;;19.42;98.69;100583.97;5051789;28;20037;-78
2023/09/17 04:44:03;;;;;;;16.60;12.05;;;;;;;19.56;97.15;100592.41;5041848;28;20033;-78
2023/09/17 04:46:29;;;;;;;18.00;11.45;;;;;;;19.63;97.78;100609.19;5055859;28;20028;-78
2023/09/17 04:48:55;;;;;;;16.50;11.32;;;;;;;19.51;98.36;100581.56;5065476;28;20044;-78
2023/09/17 04:51:21;;;;;;;20.40;13.05;;;;;;;19.89;97.06;100605.78;5069331;28;20036;-78
2023/09/17 04:53:47;;;;;;;20.13;13.38;;;;;;;19.97;95.92;100611.50;5051165;28;20039;-78
2023/09/17 04:56:12;;;;;;;18.60;12.80;;;;;;;19.90;95.61;100602.84;5049734;28;20037;-79
2023/09/17 04:58:38;;;;;;;17.40;13.00;;;;;;;19.90;95.20;100597.41;5047651;28;20032;-79
2023/09/17 05:01:06;;;;;;;16.08;12.25;;;;;;;20.12;93.87;100615.31;5060085;28;20052;-78
2023/09/17 05:03:31;;;;;;;15.38;12.73;;;;;;;19.86;94.04;100578.19;5054535;28;20036;-79
2023/09/17 05:05:57;;;;;;;22.30;12.10;;;;;;;20.09;93.44;100621.28;5043577;28;20029;-78
2023/09/17 05:08:22;;;;;;;13.88;11.30;;;;;;;20.06;93.57;100601.78;5029970;28;20025;-79
2023/09/17 05:10:48;;;;;;;14.65;11.50;;;;;;;20.11;94.40;100619.09;5056394;28;20068;-79
2023/09/17 05:13:14;;;;;;;15.95;12.57;;;;;;;20.25;94.38;100615.59;5066425;28;20104;-78
2023/09/17 05:15:39;;;;;;;16.58;12.48;;;;;;;20.32;93.76;100636.97;5051802;28;20111;-78
2023/09/17 05:18:09;;;;;;;15.70;12.10;;;;;;;20.19;94.80;100624.00;5070106;28;20059;-78
2023/09/17 05:20:41;;;;;;;16.45;11.30;;;;;;;20.09;96.14;100615.84;5062794;28;20036;-79
2023/09/17 05:23:07;;;;;;;15.35;11.57;;;;;;;20.22;96.21;100624.25;5053959;28;20052;-78
2023/09/17 05:25:34;;;;;;;16.20;11.43;;;;;;;20.36;95.44;100615.59;5029101;28;20431;-78
2023/09/17 05:28:03;;;;;;;16.40;11.40;;;;;;;20.42;95.36;100631.56;5029487;28;20044;-79
2023/09/17 05:30:28;;;;;;;16.10;12.77;;;;;;;20.48;94.76;100630.47;5061279;28;20124;-77
2023/09/17 05:32:53;;;;;;;16.20;11.40;;;;;;;20.44;94.73;100610.44;5062569;28;20116;-77
2023/09/17 05:35:19;;;;;;;16.17;11.60;;;;;;;20.57;95.30;100632.66;5030198;28;20099;-77
2023/09/17 05:37:44;;;;;;;14.25;11.15;;;;;;;20.63;94.79;100621.56;5045388;28;20100;-78
2023/09/17 05:40:10;;;;;;;17.13;11.98;;;;;;;20.82;94.13;100621.00;5060096;28;20032;-77
2023/09/17 05:42:38;;;;;;;16.02;11.77;;;;;;;20.94;92.97;100623.41;5053623;28;20031;-78
2023/09/17 05:45:04;;;;;;;17.30;12.57;;;;;;;20.79;94.83;100641.34;5068434;28;20033;-78
2023/09/17 05:47:32;;;;;;;16.33;12.45;;;;;;;21.07;92.74;100636.41;5041561;28;20032;-79
2023/09/17 05:49:59;;;;;;;18.80;13.38;;;;;;;21.06;91.00;100634.78;5045426;28;20040;-79
2023/09/17 05:52:24;;;;;;;17.27;13.10;;;;;;;21.04;91.29;100634.25;5053655;28;20057;-79
2023/09/17 05:54:50;;;;;;;17.30;12.60;;;;;;;21.18;91.12;100643.44;5044320;28;20111;-78
2023/09/17 05:57:16;;;;;;;15.52;12.63;;;;;;;21.02;91.42;100633.72;5039540;28;20555;-78
2023/09/17 05:59:42;;;;;;;16.27;11.98;;;;;;;20.97;92.50;100650.00;5048867;28;20033;-79
2023/09/17 06:02:09;;;;;;;16.98;11.85;;;;;;;20.98;92.10;100649.69;5048583;28;20037;-78
2023/09/17 06:04:35;;;;;;;15.80;11.32;;;;;;;20.96;91.57;100630.19;5065185;28;20031;-78
2023/09/17 06:07:01;;;;;;;16.08;12.13;;;;;;;20.89;92.37;100629.66;5062477;28;20073;-78
2023/09/17 06:09:26;;;;;;;18.65;12.48;;;;;;;21.15;91.84;100654.84;5049522;28;20021;-78
2023/09/17 06:11:51;;;;;;;20.13;12.88;;;;;;;21.07;91.37;100644.56;5069391;28;20044;-79
2023/09/17 06:14:17;;;;;;;17.63;11.82;;;;;;;21.31;90.29;100661.03;5057934;28;20445;-78
2023/09/17 06:16:43;;;;;;;18.40;13.02;;;;;;;21.24;90.49;100636.91;5053499;28;20722;-78
2023/09/17 06:19:08;;;;;;;17.98;11.90;;;;;;;21.26;90.07;100644.75;5070243;28;20044;-78
2023/09/17 06:21:34;;;;;;;19.73;13.02;;;;;;;21.14;90.08;100631.50;5068022;28;20092;-78
2023/09/17 06:23:59;;;;;;;18.88;12.30;;;;;;;21.37;89.39;100656.38;5057655;28;20025;-78
2023/09/17 06:26:24;;;;;;;33.80;20.65;;;;;;;21.63;87.65;100655.22;5041802;28;20032;-78
2023/09/17 06:28:50;;;;;;;23.73;14.85;;;;;;;21.75;87.20;100648.69;5041368;28;20033;-78
2023/09/17 06:31:19;;;;;;;28.15;19.77;;;;;;;21.97;85.25;100665.38;5067644;28;20028;-79
2023/09/17 06:33:44;;;;;;;24.67;17.20;;;;;;;21.81;87.33;100663.84;5074391;28;20037;-78
2023/09/17 06:36:10;;;;;;;20.02;14.10;;;;;;;21.87;86.46;100679.03;5060144;28;20043;-77
2023/09/17 06:38:35;;;;;;;17.50;12.38;;;;;;;22.07;86.16;100678.09;5044183;28;20030;-78
2023/09/17 06:41:01;;;;;;;15.40;10.70;;;;;;;22.14;84.80;100681.31;5063301;28;20063;-79
2023/09/17 06:43:26;;;;;;;17.48;10.73;;;;;;;22.34;83.12;100669.53;5075356;28;20053;-78
2023/09/17 06:45:51;;;;;;;15.45;10.98;;;;;;;22.17;83.98;100669.88;5059523;28;20031;-79
2023/09/17 06:48:17;;;;;;;14.82;9.93;;;;;;;22.15;85.07;100671.25;5061734;28;20043;-78
2023/09/17 06:50:45;;;;;;;14.35;9.57;;;;;;;21.80;87.05;100665.75;5070056;28;20093;-80
2023/09/17 06:53:10;;;;;;;;;;;;;;;22.12;85.46;100679.97;5083438;28;20052;-79
2023/09/17 06:55:38;;;;;;;15.10;10.15;;;;;;;22.15;85.46;100666.66;5064032;28;19921;-79
2023/09/17 06:58:03;;;;;;;;;;;;;;;22.44;84.73;100676.78;5060568;28;20104;-78
2023/09/17 07:00:29;;;;;;;14.05;9.00;;;;;;;22.47;82.71;100657.19;5062242;28;19974;-78
2023/09/17 07:02:54;;;;;;;14.50;10.18;;;;;;;22.54;84.28;100667.75;5065329;28;20040;-78
2023/09/17 07:05:20;;;;;;;13.63;9.57;;;;;;;22.65;84.19;100664.66;5061962;28;20074;-79
2023/09/17 07:07:45;;;;;;;15.27;10.48;;;;;;;23.05;80.91;100645.56;5053915;28;20504;-78
2023/09/17 07:10:11;;;;;;;14.68;8.90;;;;;;;23.34;78.52;100670.00;5053337;28;20033;-79
2023/09/17 07:12:38;;;;;;;12.10;8.77;;;;;;;23.39;78.70;100669.91;5066568;28;20448;-80
2023/09/17 07:15:10;;;;;;;12.00;9.77;;;;;;;23.46;78.22;100661.41;5060473;28;20029;-79
2023/09/17 07:17:36;;;;;;;13.43;9.32;;;;;;;23.71;78.28;100667.66;5052821;28;20052;-82
2023/09/17 07:20:04;;;;;;;12.90;8.60;;;;;;;23.83;75.88;100670.78;5052678;28;20036;-79
2023/09/17 07:22:29;;;;;;;;;;;;;;;23.97;75.72;100677.13;5066272;28;20087;-79
2023/09/17 07:24:58;;;;;;;13.10;8.75;;;;;;;23.88;76.40;100662.53;5061078;28;19916;-79
2023/09/17 07:27:28;;;;;;;14.55;9.07;;;;;;;23.86;74.96;100687.34;5071515;28;20021;-79
2023/09/17 07:29:54;;;;;;;12.90;9.70;;;;;;;23.63;76.81;100672.63;5032709;28;20767;-78
2023/09/17 07:32:20;;;;;;;15.07;8.90;;;;;;;23.53;77.95;100671.94;5060392;28;20028;-79
2023/09/17 07:34:45;;;;;;;14.68;10.07;;;;;;;23.77;76.22;100667.31;5058261;28;20036;-79
2023/09/17 07:37:11;;;;;;;15.25;8.70;;;;;;;23.52;77.54;100662.97;5053020;28;20090;-79
2023/09/17 07:39:38;;;;;;;14.07;9.30;;;;;;;23.72;76.78;100674.69;5051889;28;20041;-79
2023/09/17 07:42:06;;;;;;;16.90;10.93;;;;;;;23.55;78.00;100675.19;5063084;28;20044;-78
2023/09/17 07:44:31;;;;;;;13.25;10.43;;;;;;;23.06;80.24;100663.50;5055718;28;20051;-78
2023/09/17 07:46:56;;;;;;;16.27;11.05;;;;;;;23.17;79.83;100659.56;5040993;28;20462;-78
2023/09/17 07:49:27;;;;;;;14.45;9.90;;;;;;;23.79;76.30;100664.31;5047401;28;20524;-78
2023/09/17 07:51:52;;;;;;;14.15;11.05;;;;;;;24.13;75.50;100663.28;5059936;28;20044;-78
2023/09/17 07:54:17;;;;;;;15.15;10.38;;;;;;;23.95;76.23;100649.38;5055607;28;20021;-78
2023/09/17 07:56:46;;;;;;;15.02;11.20;;;;;;;24.15;75.95;100658.34;5070621;28;20475;-79
2023/09/17 07:59:11;;;;;;;14.70;10.27;;;;;;;24.27;73.51;100637.72;5059380;28;20032;-80
2023/09/17 08:01:36;;;;;;;11.93;8.88;;;;;;;24.29;74.87;100655.69;5056330;28;20040;-79
2023/09/17 08:04:02;;;;;;;11.40;9.05;;;;;;;24.38;72.48;100657.44;5059173;28;20029;-79
2023/09/17 08:06:27;;;;;;;17.42;10.15;;;;;;;24.50;73.65;100662.47;5049798;28;20029;-79
2023/09/17 08:08:53;;;;;;;13.38;9.10;;;;;;;24.84;72.22;100643.03;5038048;28;20086;-78
2023/09/17 08:11:19;;;;;;;11.05;9.05;;;;;;;24.49;73.17;100660.81;5050622;28;20025;-78
2023/09/17 08:13:47;;;;;;;13.15;9.48;;;;;;;24.10;75.42;100640.16;5058499;28;20075;-79
2023/09/17 08:16:13;;;;;;;14.93;8.68;;;;;;;25.07;69.77;100654.09;5051597;28;20029;-79
2023/09/17 08:18:39;;;;;;;12.48;8.82;;;;;;;25.25;67.92;100655.13;5038736;28;20408;-79
2023/09/17 08:21:04;;;;;;;14.70;9.52;;;;;;;25.74;67.86;100656.31;5068687;28;20035;-78
2023/09/17 08:23:30;;;;;;;12.63;8.70;;;;;;;26.19;63.61;100655.59;5062908;28;20059;-79
2023/09/17 08:25:57;;;;;;;12.60;8.65;;;;;;;26.43;65.57;100639.69;5057933;28;20107;-79
2023/09/17 08:28:22;;;;;;;14.73;9.57;;;;;;;26.23;64.13;100648.41;5050224;28;20021;-81
2023/09/17 08:30:48;;;;;;;13.82;8.77;;;;;;;26.32;63.02;100643.03;5050542;28;20160;-79
2023/09/17 08:33:15;;;;;;;13.68;8.77;;;;;;;26.49;61.10;100648.59;5063954;28;20400;-79
2023/09/17 08:35:40;;;;;;;13.25;8.60;;;;;;;25.74;64.04;100636.38;5056419;28;20051;-80
2023/09/17 08:38:06;;;;;;;9.82;8.45;;;;;;;25.89;63.33;100646.97;5033156;28;20151;-80
2023/09/17 08:40:34;;;;;;;14.18;8.82;;;;;;;26.17;60.80;100641.44;5046718;28;20381;-80
2023/09/17 08:43:01;;;;;;;12.40;8.55;;;;;;;26.88;59.52;100643.53;5061380;28;20032;-80
2023/09/17 08:45:30;;;;;;;14.40;9.20;;;;;;;26.59;58.82;100647.56;5054376;28;20397;-80
2023/09/17 08:47:55;;;;;;;14.73;9.43;;;;;;;26.27;61.32;100641.19;5054078;28;20029;-81
2023/09/17 08:50:21;;;;;;;13.35;9.63;;;;;;;25.83;62.57;100631.81;5049825;28;20029;-79
2023/09/17 08:52:53;;;;;;;15.40;8.57;;;;;;;26.34;61.29;100641.59;5058495;28;20429;-81
2023/09/17 08:55:20;;;;;;;12.70;8.93;;;;;;;26.98;59.72;100632.31;5070739;28;20056;-79
2023/09/17 08:57:53;;;;;;;12.77;8.55;;;;;;;27.04;57.82;100609.16;5056506;28;20032;-79
2023/09/17 09:00:22;;;;;;;13.00;8.15;;;;;;;26.96;56.55;100629.09;5047958;28;20043;-80
2023/09/17 09:03:08;;;;;;;12.73;8.05;;;;;;;27.36;54.44;100638.13;5056750;28;20487;-81
2023/09/17 09:05:35;;;;;;;14.07;8.27;;;;;;;27.65;53.17;100637.53;5054210;28;20036;-81
2023/09/17 09:08:01;;;;;;;15.05;8.23;;;;;;;26.78;55.15;100628.19;5068439;28;20174;-78
2023/09/17 09:10:28;;;;;;;13.07;7.70;;;;;;;27.01;55.45;100617.97;5043418;28;20072;-82
2023/09/17 09:12:55;;;;;;;;;;;;;;;27.13;55.53;100629.13;5045025;28;20111;-80
2023/09/17 09:15:21;;;;;;;13.23;8.65;;;;;;;27.03;55.49;100623.94;5069110;28;19987;-78
2023/09/17 09:17:46;;;;;;;11.63;8.05;;;;;;;27.11;53.25;100625.09;5039763;28;20116;-79
2023/09/17 09:20:14;;;;;;;15.38;10.43;;;;;;;27.03;54.23;100613.00;5029662;28;20041;-79
2023/09/17 09:22:46;;;;;;;26.88;9.23;;;;;;;26.67;54.47;100622.19;5037868;28;20554;-79
2023/09/17 09:25:15;;;;;;;12.90;8.38;;;;;;;26.65;54.06;100624.44;5057809;28;20025;-79
2023/09/17 09:27:41;;;;;;;13.00;8.70;;;;;;;26.74;54.76;100617.06;5065291;28;20039;-79
2023/09/17 09:30:09;;;;;;;13.18;8.15;;;;;;;27.28;53.68;100618.91;5054375;28;20095;-80
2023/09/17 09:32:36;;;;;;;14.32;8.27;;;;;;;27.64;53.24;100616.75;5033888;28;20124;-78
2023/09/17 09:35:02;;;;;;;13.02;7.32;;;;;;;28.10;50.61;100621.94;5060006;28;20041;-79
2023/09/17 09:37:28;;;;;;;11.93;6.70;;;;;;;28.41;50.47;100614.31;5051518;28;20154;-79
2023/09/17 09:39:54;;;;;;;11.48;6.82;;;;;;;28.28;50.96;100614.50;5032666;28;20741;-78
2023/09/17 09:42:22;;;;;;;11.57;7.10;;;;;;;28.21;49.43;100612.25;5049195;28;20025;-79
2023/09/17 09:44:50;;;;;;;11.10;7.05;;;;;;;28.73;46.47;100606.69;5062425;28;20071;-79
2023/09/17 09:47:16;;;;;;;9.48;6.40;;;;;;;28.87;44.67;100614.69;5058847;28;20496;-80
2023/09/17 09:49:45;;;;;;;9.52;6.30;;;;;;;28.38;46.58;100605.91;5068844;28;20029;-80
2023/09/17 09:52:12;;;;;;;9.73;6.55;;;;;;;28.81;46.47;100599.53;5028750;28;20586;-80
2023/09/17 09:54:39;;;;;;;;;;;;;;;29.18;46.14;100600.69;5059580;28;20116;-80
2023/09/17 09:57:07;;;;;;;12.15;6.65;;;;;;;28.78;46.46;100592.75;5056487;28;20481;-81
2023/09/17 09:59:34;;;;;;;12.65;6.65;;;;;;;28.71;45.01;100589.72;5068901;28;20459;-79
2023/09/17 10:02:04;;;;;;;10.82;5.90;;;;;;;28.34;46.10;100592.06;5034923;28;20053;-80
2023/09/17 10:04:29;;;;;;;13.73;6.22;;;;;;;28.17;47.95;100583.88;5056394;28;20128;-79
2023/09/17 10:06:56;;;;;;;12.07;6.55;;;;;;;28.10;47.40;100583.56;5053216;28;20108;-79
2023/09/17 10:09:27;;;;;;;13.52;6.20;;;;;;;28.48;47.92;100582.81;5050745;28;20063;-79
2023/09/17 10:11:53;;;;;;;8.68;5.43;;;;;;;28.48;45.85;100583.63;5033826;28;20040;-79
2023/09/17 10:14:21;;;;;;;9.20;5.75;;;;;;;28.93;46.63;100585.09;5051199;28;20033;-79
2023/09/17 10:16:48;;;;;;;10.90;5.95;;;;;;;29.61;43.51;100594.09;5052976;28;20033;-80
2023/09/17 10:19:19;;;;;;;10.18;5.95;;;;;;;29.24;43.38;100584.84;5038404;28;20041;-78
2023/09/17 10:21:46;;;;;;;10.80;6.18;;;;;;;29.03;44.30;100562.75;5046128;28;20033;-80
2023/09/17 10:24:12;;;;;;;;;;;;;;;29.46;43.07;100594.69;5062131;28;20459;-79
2023/09/17 10:26:42;;;;;;;10.85;6.00;;;;;;;29.97;42.19;100587.19;5058307;28;20584;-80
2023/09/17 10:29:09;;;;;;;12.20;5.88;;;;;;;29.88;40.37;100564.47;5072392;28;20031;-79
2023/09/17 10:31:36;;;;;;;10.75;5.78;;;;;;;29.72;40.96;100569.00;5053044;28;20033;-82
2023/09/17 10:34:03;;;;;;;9.10;5.32;;;;;;;30.13;41.81;100548.88;5038043;28;20116;-81
2023/09/17 10:36:31;;;;;;;9.85;5.30;;;;;;;29.56;40.93;100572.31;5051725;28;20037;-81
2023/09/17 10:38:59;;;;;;;9.93;5.30;;;;;;;29.76;41.02;100556.19;5042461;28;20525;-81
2023/09/17 10:41:28;;;;;;;11.20;5.70;;;;;;;30.22;41.41;100573.56;5047698;28;20185;-81
2023/09/17 10:43:55;;;;;;;11.18;6.15;;;;;;;30.28;40.85;100560.38;5067719;28;20051;-82
2023/09/17 10:46:23;;;;;;;;;;;;;;;29.52;42.15;100560.38;5062247;28;20038;-80
2023/09/17 10:48:50;;;;;;;9.00;5.55;;;;;;;29.95;40.50;100539.97;5052281;28;19913;-80
2023/09/17 10:51:17;;;;;;;13.53;5.47;;;;;;;30.35;41.31;100546.91;5036324;28;20426;-80
2023/09/17 10:53:43;;;;;;;9.73;7.03;;;;;;;30.81;38.72;100547.63;5053594;28;20041;-80
2023/09/17 10:56:10;;;;;;;7.97;4.93;;;;;;;30.68;38.69;100543.25;5064366;28;20687;-80
2023/09/17 10:58:52;;;;;;;11.10;5.00;;;;;;;30.79;38.24;100547.97;5054990;28;20041;-79
2023/09/17 11:01:29;;;;;;;8.90;5.30;;;;;;;29.75;39.38;100525.16;5035391;28;20144;-81
2023/09/17 11:04:12;;;;;;;9.00;4.97;;;;;;;29.77;41.04;100522.03;5052110;28;20029;-81
2023/09/17 11:06:41;;;;;;;9.00;5.28;;;;;;;28.84;42.17;100531.06;5072684;28;20051;-80
2023/09/17 11:09:07;;;;;;;11.52;5.15;;;;;;;28.61;42.85;100503.09;5056049;28;20032;-80
2023/09/17 11:11:36;;;;;;;8.85;5.43;;;;;;;28.86;42.43;100525.25;5051657;28;20020;-81
2023/09/17 11:14:04;;;;;;;13.45;5.28;;;;;;;29.53;40.19;100507.03;5052583;28;20043;-80